createdAt,value
2017-05-07T00:00:00.270Z,87.30
2017-05-07T00:02:29.331Z,87.30
2017-05-07T00:04:58.372Z,87.40
2017-05-07T00:07:27.446Z,87.50
2017-05-07T00:09:56.480Z,87.50
2017-05-07T00:12:25.544Z,87.70
2017-05-07T00:14:54.577Z,87.60
2017-05-07T00:17:23.736Z,87.80
2017-05-07T00:19:52.806Z,87.50
2017-05-07T00:22:22.601Z,87.70
2017-05-07T00:24:52.389Z,88.00
2017-05-07T00:27:21.456Z,87.60
2017-05-07T00:29:50.485Z,88.00
2017-05-07T00:32:19.555Z,88.40
2017-05-07T00:34:48.609Z,88.40
2017-05-07T00:37:18.408Z,88.80
2017-05-07T00:39:48.189Z,89.10
2017-05-07T00:42:17.293Z,88.30
2017-05-07T00:44:46.359Z,89.00
2017-05-07T00:47:15.401Z,90.00
2017-05-07T00:49:44.446Z,89.40
2017-05-07T00:52:13.523Z,89.00
2017-05-07T00:54:42.577Z,89.20
2017-05-07T00:57:12.377Z,89.40
2017-05-07T00:59:41.422Z,89.50
2017-05-07T01:02:10.478Z,89.80
2017-05-07T01:04:39.592Z,90.10
2017-05-07T01:07:08.788Z,90.20
2017-05-07T01:09:37.817Z,90.20
2017-05-07T01:12:06.921Z,90.10
2017-05-07T01:14:35.975Z,90.20
2017-05-07T01:17:05.773Z,90.20
2017-05-07T01:19:35.692Z,90.20
2017-05-07T01:22:05.469Z,90.20
2017-05-07T01:24:34.523Z,90.30
2017-05-07T01:27:03.562Z,90.30
2017-05-07T01:29:32.622Z,90.20
2017-05-07T01:32:01.669Z,90.30
2017-05-07T01:34:31.592Z,90.80
2017-05-07T01:37:01.379Z,90.80
2017-05-07T01:39:30.437Z,90.70
2017-05-07T01:41:59.481Z,90.60
2017-05-07T01:44:29.274Z,91.00
2017-05-07T01:46:58.399Z,90.90
2017-05-07T01:49:28.211Z,91.00
2017-05-07T01:51:58.012Z,91.00
2017-05-07T01:54:27.078Z,91.00
2017-05-07T01:56:56.130Z,91.00
2017-05-07T01:59:25.180Z,91.10
2017-05-07T02:01:54.300Z,90.80
2017-05-07T02:04:24.083Z,91.20
2017-05-07T02:06:53.145Z,90.90
2017-05-07T02:09:22.195Z,91.10
2017-05-07T02:11:51.261Z,91.10
2017-05-07T02:14:20.298Z,91.10
2017-05-07T02:16:49.355Z,91.20
2017-05-07T02:19:18.502Z,91.10
2017-05-07T02:21:47.548Z,91.10
2017-05-07T02:24:16.605Z,91.10
2017-05-07T02:26:45.652Z,91.30
2017-05-07T02:29:15.569Z,91.20
2017-05-07T02:31:45.357Z,91.00
2017-05-07T02:34:14.441Z,91.00
2017-05-07T02:36:43.479Z,91.10
2017-05-07T02:39:13.280Z,90.80
2017-05-07T02:41:43.212Z,91.20
2017-05-07T02:44:13.009Z,91.40
2017-05-07T02:46:42.793Z,91.40
2017-05-07T02:49:11.857Z,91.30
2017-05-07T02:51:40.901Z,91.20
2017-05-07T02:54:10.706Z,91.00
2017-05-07T02:56:39.743Z,91.00
2017-05-07T02:59:08.801Z,90.90
2017-05-07T03:01:38.589Z,90.90
2017-05-07T03:04:07.719Z,91.20
2017-05-07T03:06:37.504Z,91.20
2017-05-07T03:09:06.571Z,91.20
2017-05-07T03:11:35.645Z,91.40
2017-05-07T03:14:04.737Z,91.40
2017-05-07T03:16:33.776Z,91.40
2017-05-07T03:19:02.829Z,91.40
2017-05-07T03:21:31.900Z,91.50
2017-05-07T03:24:01.693Z,91.60
2017-05-07T03:26:30.750Z,91.60
2017-05-07T03:28:59.821Z,91.50
2017-05-07T03:31:28.861Z,91.20
2017-05-07T03:33:57.934Z,91.30
2017-05-07T03:36:27.017Z,90.90
2017-05-07T03:38:56.065Z,91.00
2017-05-07T03:41:25.894Z,91.10
2017-05-07T03:43:54.953Z,91.10
2017-05-07T03:46:24.020Z,91.60
2017-05-07T03:48:53.072Z,92.10
2017-05-07T03:51:22.871Z,92.30
2017-05-07T03:53:51.899Z,92.70
2017-05-07T03:56:20.954Z,92.10
2017-05-07T03:58:50.022Z,93.20
2017-05-07T04:01:19.146Z,92.60
2017-05-07T04:03:48.963Z,93.20
2017-05-07T04:06:18.765Z,92.60
2017-05-07T04:08:47.817Z,92.20
2017-05-07T04:11:16.880Z,91.90
2017-05-07T04:13:46.681Z,92.00
2017-05-07T04:16:16.586Z,92.10
2017-05-07T04:18:45.640Z,92.20
2017-05-07T04:21:14.689Z,92.00
2017-05-07T04:23:44.481Z,92.20
2017-05-07T04:26:14.297Z,92.30
2017-05-07T04:28:44.110Z,92.20
2017-05-07T04:31:13.164Z,91.90
2017-05-07T04:33:42.221Z,91.60
2017-05-07T04:36:11.265Z,91.40
2017-05-07T04:38:40.326Z,91.20
2017-05-07T04:41:09.498Z,91.30
2017-05-07T04:43:38.566Z,91.40
2017-05-07T04:46:07.635Z,91.50
2017-05-07T04:48:36.677Z,91.30
2017-05-07T04:51:06.465Z,91.30
2017-05-07T04:53:35.521Z,91.30
2017-05-07T04:56:04.580Z,91.20
2017-05-07T04:58:33.624Z,90.70
2017-05-07T05:01:02.771Z,90.80
2017-05-07T05:03:32.529Z,91.20
2017-05-07T05:06:01.594Z,90.80
2017-05-07T05:08:30.629Z,90.50
2017-05-07T05:10:59.766Z,90.50
2017-05-07T05:13:29.526Z,90.10
2017-05-07T05:15:58.568Z,90.00
2017-05-07T05:18:28.394Z,89.80
2017-05-07T05:21:12.349Z,89.80
2017-05-07T05:23:44.298Z,89.70
2017-05-07T05:26:37.920Z,90.10
2017-05-07T05:32:26.301Z,90.90
2017-05-07T05:34:55.332Z,90.70
2017-05-07T05:37:24.386Z,91.20
2017-05-07T05:39:53.492Z,90.30
2017-05-07T05:42:23.295Z,90.20
2017-05-07T05:44:52.325Z,90.20
2017-05-07T05:47:21.489Z,90.20
2017-05-07T05:49:50.529Z,89.70
2017-05-07T05:52:19.595Z,88.70
2017-05-07T05:54:49.496Z,87.40
2017-05-07T05:57:18.546Z,86.80
2017-05-07T05:59:47.622Z,86.40
2017-05-07T06:02:16.680Z,87.10
2017-05-07T06:04:46.500Z,87.30
2017-05-07T06:07:16.297Z,87.60
2017-05-07T06:09:45.338Z,86.40
2017-05-07T06:12:14.414Z,85.40
2017-05-07T06:14:43.462Z,85.50
2017-05-07T06:17:12.505Z,84.50
2017-05-07T06:19:41.566Z,84.60
2017-05-07T06:22:10.666Z,84.90
2017-05-07T06:24:39.721Z,83.10
2017-05-07T06:27:08.859Z,82.50
2017-05-07T06:29:37.971Z,81.70
2017-05-07T06:32:07.742Z,80.80
2017-05-07T06:34:36.809Z,82.20
2017-05-07T06:37:05.862Z,82.30
2017-05-07T06:39:35.650Z,83.00
2017-05-07T06:42:04.782Z,81.60
2017-05-07T06:44:34.557Z,81.20
2017-05-07T06:47:03.601Z,82.80
2017-05-07T06:49:38.313Z,81.00
2017-05-07T06:52:07.361Z,80.60
2017-05-07T06:54:36.483Z,80.90
2017-05-07T06:57:06.295Z,79.80
2017-05-07T06:59:36.097Z,78.70
2017-05-07T07:02:05.202Z,78.10
2017-05-07T07:04:34.997Z,77.00
2017-05-07T07:07:04.053Z,75.90
2017-05-07T07:09:33.117Z,76.10
2017-05-07T07:12:02.890Z,77.40
2017-05-07T07:14:32.008Z,77.30
2017-05-07T07:17:01.790Z,77.30
2017-05-07T07:19:30.857Z,77.10
2017-05-07T07:21:59.903Z,76.50
2017-05-07T07:24:28.977Z,75.50
2017-05-07T07:26:58.097Z,76.60
2017-05-07T07:29:27.913Z,76.50
2017-05-07T07:31:56.940Z,75.70
2017-05-07T07:34:26.232Z,75.60
2017-05-07T07:36:56.001Z,72.80
2017-05-07T07:39:25.046Z,70.90
2017-05-07T07:41:54.270Z,70.00
2017-05-07T07:44:23.595Z,71.50
2017-05-07T07:46:52.658Z,73.70
2017-05-07T07:49:21.700Z,74.40
2017-05-07T07:51:51.516Z,73.20
2017-05-07T07:54:21.320Z,72.40
2017-05-07T07:56:50.385Z,72.70
2017-05-07T07:59:19.461Z,71.00
2017-05-07T08:01:48.511Z,69.70
2017-05-07T08:04:18.324Z,68.70
2017-05-07T08:06:47.420Z,68.90
2017-05-07T08:09:16.503Z,70.80
2017-05-07T08:11:45.538Z,72.50
2017-05-07T08:14:14.598Z,70.40
2017-05-07T08:16:44.385Z,69.70
2017-05-07T08:19:13.445Z,71.20
2017-05-07T08:21:42.502Z,71.20
2017-05-07T08:24:12.300Z,71.70
2017-05-07T08:26:42.073Z,71.00
2017-05-07T08:29:11.142Z,71.20
2017-05-07T08:31:40.177Z,71.60
2017-05-07T08:34:09.313Z,68.70
2017-05-07T08:36:39.088Z,68.00
2017-05-07T08:39:08.200Z,67.70
2017-05-07T08:41:37.264Z,69.40
2017-05-07T08:44:06.351Z,70.30
2017-05-07T08:46:35.404Z,69.60
2017-05-07T08:49:05.221Z,66.60
2017-05-07T08:51:35.007Z,64.50
2017-05-07T08:54:04.038Z,61.70
2017-05-07T08:56:33.095Z,59.50
2017-05-07T08:59:03.025Z,57.30
2017-05-07T09:01:32.105Z,56.20
2017-05-07T09:04:01.914Z,55.90
2017-05-07T09:06:30.970Z,53.90
2017-05-07T09:09:00.010Z,52.50
2017-05-07T09:11:29.834Z,51.70
2017-05-07T09:17:03.968Z,53.90
2017-05-07T09:19:34.497Z,54.30
2017-05-07T09:22:18.445Z,56.50
2017-05-07T09:24:48.275Z,57.30
2017-05-07T09:27:17.357Z,56.60
2017-05-07T09:29:46.400Z,56.40
2017-05-07T09:32:15.531Z,56.40
2017-05-07T09:34:44.609Z,56.90
2017-05-07T09:37:13.669Z,58.20
2017-05-07T09:39:42.742Z,59.20
2017-05-07T09:42:11.822Z,62.40
2017-05-07T09:44:41.589Z,63.70
2017-05-07T09:47:10.634Z,67.10
2017-05-07T09:49:39.682Z,67.70
2017-05-07T09:52:08.724Z,67.20
2017-05-07T09:54:37.773Z,67.40
2017-05-07T09:57:06.821Z,63.70
2017-05-07T09:59:35.905Z,61.50
2017-05-07T10:02:04.948Z,61.40
2017-05-07T10:04:33.981Z,61.30
2017-05-07T10:07:03.034Z,59.30
2017-05-07T10:09:32.110Z,57.90
2017-05-07T10:12:01.158Z,57.90
2017-05-07T10:14:30.973Z,58.60
2017-05-07T10:17:00.756Z,58.30
2017-05-07T10:19:29.825Z,56.30
2017-05-07T10:21:58.903Z,55.00
2017-05-07T10:24:27.939Z,55.90
2017-05-07T10:26:57.041Z,55.30
2017-05-07T10:29:26.149Z,56.80
2017-05-07T10:31:55.969Z,56.60
2017-05-07T10:34:25.737Z,54.60
2017-05-07T10:36:54.811Z,54.30
2017-05-07T10:39:23.951Z,54.10
2017-05-07T10:41:53.066Z,53.90
2017-05-07T10:44:22.853Z,51.80
2017-05-07T10:46:51.917Z,48.70
2017-05-07T10:49:20.953Z,47.40
2017-05-07T10:51:50.811Z,45.50
2017-05-07T10:54:19.864Z,47.40
2017-05-07T10:56:48.910Z,47.90
2017-05-07T10:59:18.080Z,49.10
2017-05-07T11:01:47.128Z,52.00
2017-05-07T11:04:16.291Z,52.00
2017-05-07T11:06:45.381Z,52.60
2017-05-07T11:09:14.443Z,53.10
2017-05-07T11:11:44.225Z,52.20
2017-05-07T11:14:13.292Z,50.40
2017-05-07T11:16:42.335Z,47.90
2017-05-07T11:19:12.129Z,46.20
2017-05-07T11:21:41.226Z,45.20
2017-05-07T11:24:10.383Z,41.70
2017-05-07T11:26:39.408Z,38.10
2017-05-07T11:29:08.441Z,33.40
2017-05-07T11:31:37.504Z,31.20
2017-05-07T11:34:06.543Z,30.20
2017-05-07T11:36:35.706Z,28.90
2017-05-07T11:39:05.498Z,28.00
2017-05-07T11:41:34.565Z,26.90
2017-05-07T11:44:03.649Z,28.00
2017-05-07T11:46:32.710Z,29.30
2017-05-07T11:49:02.482Z,30.30
2017-05-07T11:51:31.561Z,30.30
2017-05-07T11:54:00.705Z,30.00
2017-05-07T11:56:30.525Z,29.60
2017-05-07T11:59:00.329Z,30.00
2017-05-07T12:01:30.142Z,32.20
2017-05-07T12:03:59.233Z,35.50
2017-05-07T12:06:28.339Z,39.60
2017-05-07T12:08:57.377Z,42.90
2017-05-07T12:11:26.645Z,45.50
2017-05-07T12:13:56.426Z,47.40
2017-05-07T12:16:26.231Z,48.60
2017-05-07T12:18:55.305Z,49.70
2017-05-07T12:21:24.380Z,50.90
2017-05-07T12:23:53.457Z,51.10
2017-05-07T12:26:22.529Z,51.70
2017-05-07T12:28:51.545Z,51.30
2017-05-07T12:31:20.610Z,50.20
2017-05-07T12:33:50.409Z,48.60
2017-05-07T12:36:19.467Z,49.30
2017-05-07T12:38:48.732Z,49.40
2017-05-07T12:41:18.616Z,48.70
2017-05-07T12:43:47.653Z,48.30
2017-05-07T12:46:16.706Z,47.00
2017-05-07T12:48:45.754Z,45.80
2017-05-07T12:51:14.814Z,43.50
2017-05-07T12:53:44.628Z,38.90
2017-05-07T12:56:14.405Z,36.50
2017-05-07T12:58:43.449Z,33.90
2017-05-07T13:01:12.516Z,31.90
2017-05-07T13:03:42.305Z,29.60
2017-05-07T13:06:11.385Z,27.30
2017-05-07T13:08:40.446Z,24.90
2017-05-07T13:11:09.589Z,24.90
2017-05-07T13:13:38.658Z,25.30
2017-05-07T13:16:07.700Z,24.70
2017-05-07T13:18:37.498Z,23.20
2017-05-07T13:21:06.589Z,22.70
2017-05-07T13:23:35.680Z,22.90
2017-05-07T13:26:04.716Z,24.40
2017-05-07T13:28:33.865Z,26.40
2017-05-07T13:31:02.905Z,26.00
2017-05-07T13:33:31.965Z,26.60
2017-05-07T13:36:01.774Z,27.80
2017-05-07T13:38:30.845Z,29.50
2017-05-07T13:41:00.100Z,32.70
2017-05-07T13:43:29.878Z,35.20
2017-05-07T13:45:59.357Z,35.80
2017-05-07T13:48:28.485Z,36.60
2017-05-07T13:50:57.548Z,37.80
2017-05-07T13:53:26.599Z,39.00
2017-05-07T13:55:55.683Z,38.30
2017-05-07T13:58:25.467Z,36.20
2017-05-07T14:00:54.533Z,35.20
2017-05-07T14:03:23.621Z,33.40
2017-05-07T14:05:52.698Z,35.90
2017-05-07T14:08:21.740Z,37.10
2017-05-07T14:10:50.816Z,38.70
2017-05-07T14:13:19.860Z,40.10
2017-05-07T14:15:49.676Z,42.30
2017-05-07T14:18:18.755Z,45.20
2017-05-07T14:20:47.863Z,47.50
2017-05-07T14:23:17.668Z,48.40
2017-05-07T14:25:47.476Z,48.30
2017-05-07T14:28:16.554Z,48.70
2017-05-07T14:30:45.581Z,49.60
2017-05-07T14:33:15.385Z,50.10
2017-05-07T14:35:45.167Z,50.90
2017-05-07T14:38:14.243Z,51.50
2017-05-07T14:40:43.281Z,52.00
2017-05-07T14:43:13.074Z,53.20
2017-05-07T14:45:42.158Z,52.80
2017-05-07T14:48:11.883Z,52.80
2017-05-07T14:50:40.910Z,52.60
2017-05-07T14:53:09.997Z,52.90
2017-05-07T14:55:39.052Z,53.20
2017-05-07T14:58:08.105Z,52.30
2017-05-07T15:00:37.146Z,50.90
2017-05-07T15:03:06.201Z,50.30
2017-05-07T15:05:35.280Z,50.80
2017-05-07T15:08:05.071Z,51.30
2017-05-07T15:10:34.118Z,52.00
2017-05-07T15:13:03.149Z,52.50
2017-05-07T15:15:32.969Z,53.10
2017-05-07T15:18:02.760Z,52.90
2017-05-07T15:20:31.838Z,53.10
2017-05-07T15:23:00.880Z,52.80
2017-05-07T15:25:29.936Z,53.00
2017-05-07T15:27:58.985Z,52.50
2017-05-07T15:30:28.062Z,52.40
2017-05-07T15:32:57.839Z,52.20
2017-05-07T15:35:26.898Z,52.10
2017-05-07T15:37:55.948Z,51.90
2017-05-07T15:40:25.736Z,52.10
2017-05-07T15:42:54.782Z,52.00
2017-05-07T15:45:23.829Z,52.20
2017-05-07T15:47:52.894Z,53.50
2017-05-07T15:50:21.949Z,53.50
2017-05-07T15:52:50.985Z,53.90
2017-05-07T15:55:20.052Z,55.30
2017-05-07T15:57:49.098Z,55.20
2017-05-07T16:00:18.188Z,54.50
2017-05-07T16:02:47.421Z,54.50
2017-05-07T16:05:16.544Z,55.10
2017-05-07T16:07:45.620Z,55.70
2017-05-07T16:10:14.663Z,56.50
2017-05-07T16:12:43.805Z,56.30
2017-05-07T16:15:13.587Z,56.70
2017-05-07T16:26:56.733Z,58.00
2017-05-07T16:29:27.305Z,58.40
2017-05-07T16:31:58.729Z,59.20
2017-05-07T16:34:27.630Z,59.50
2017-05-07T16:36:56.417Z,59.90
2017-05-07T16:39:25.230Z,60.50
2017-05-07T16:41:54.031Z,60.10
2017-05-07T16:44:22.837Z,60.40
2017-05-07T16:46:52.380Z,61.10
2017-05-07T16:49:21.323Z,61.70
2017-05-07T16:51:50.118Z,62.10
2017-05-07T16:54:18.934Z,62.00
2017-05-07T16:56:47.732Z,62.20
2017-05-07T16:59:16.548Z,62.40
2017-05-07T17:01:45.346Z,62.40
2017-05-07T17:04:14.153Z,61.30
2017-05-07T17:06:48.705Z,60.70
2017-05-07T17:09:18.269Z,60.00
2017-05-07T17:11:47.074Z,60.60
2017-05-07T17:14:15.887Z,60.10
2017-05-07T17:16:45.456Z,60.20
2017-05-07T17:19:14.294Z,60.10
2017-05-07T17:21:43.108Z,60.00
2017-05-07T17:24:11.905Z,60.30
2017-05-07T17:26:40.726Z,60.00
2017-05-07T17:29:09.768Z,59.10
2017-05-07T17:31:38.830Z,59.20
2017-05-07T17:34:07.867Z,58.80
2017-05-07T17:36:36.943Z,59.00
2017-05-07T17:39:06.039Z,59.50
2017-05-07T17:41:35.105Z,58.90
2017-05-07T17:44:04.140Z,59.10
2017-05-07T17:46:33.205Z,58.60
2017-05-07T17:49:02.253Z,59.00
2017-05-07T17:51:32.061Z,59.20
2017-05-07T17:54:02.006Z,59.60
2017-05-07T17:56:31.081Z,59.80
2017-05-07T17:59:00.902Z,60.30
2017-05-07T18:01:29.957Z,61.20
2017-05-07T18:03:58.995Z,61.10
2017-05-07T18:06:28.071Z,61.30
2017-05-07T18:08:57.869Z,62.20
2017-05-07T18:11:26.935Z,62.40
2017-05-07T18:13:55.986Z,63.10
2017-05-07T18:16:25.032Z,64.50
2017-05-07T18:18:54.097Z,65.30
2017-05-07T18:21:23.142Z,65.30
2017-05-07T18:23:52.940Z,65.90
2017-05-07T18:26:22.180Z,66.00
2017-05-07T18:28:51.964Z,66.40
2017-05-07T18:31:21.743Z,66.80
2017-05-07T18:33:50.908Z,66.90
2017-05-07T18:36:19.953Z,67.00
2017-05-07T18:38:49.102Z,67.10
2017-05-07T18:41:18.192Z,67.60
2017-05-07T18:43:47.300Z,68.20
2017-05-07T18:46:16.332Z,68.60
2017-05-07T18:48:45.449Z,68.50
2017-05-07T18:51:14.544Z,68.40
2017-05-07T18:53:43.681Z,68.50
2017-05-07T18:56:12.718Z,68.40
2017-05-07T18:58:42.520Z,69.20
2017-05-07T19:01:11.621Z,68.50
2017-05-07T19:03:40.691Z,68.90
2017-05-07T19:06:09.735Z,68.30
2017-05-07T19:08:38.965Z,68.50
2017-05-07T19:11:08.015Z,68.70
2017-05-07T19:13:37.813Z,68.00
2017-05-07T19:16:06.981Z,67.10
2017-05-07T19:18:36.050Z,67.20
2017-05-07T19:21:05.189Z,67.20
2017-05-07T19:23:34.238Z,67.00
2017-05-07T19:26:03.405Z,65.90
2017-05-07T19:28:32.494Z,65.70
2017-05-07T19:31:02.299Z,65.60
2017-05-07T19:33:32.083Z,66.00
2017-05-07T19:36:01.145Z,65.00
2017-05-07T19:38:30.198Z,64.30
2017-05-07T19:40:59.275Z,62.40
2017-05-07T19:43:28.327Z,62.60
2017-05-07T19:45:57.405Z,62.60
2017-05-07T19:48:27.218Z,61.60
2017-05-07T19:50:57.038Z,61.50
2017-05-07T19:53:26.084Z,61.30
2017-05-07T19:55:55.110Z,61.40
2017-05-07T19:58:24.907Z,61.50
2017-05-07T20:00:54.705Z,60.90
2017-05-07T20:03:24.023Z,61.10
2017-05-07T20:05:53.609Z,61.00
2017-05-07T20:08:22.673Z,61.40
2017-05-07T20:10:51.723Z,61.90
2017-05-07T20:13:21.530Z,62.20
2017-05-07T20:15:51.306Z,62.20
2017-05-07T20:18:20.402Z,62.70
2017-05-07T20:20:49.445Z,63.10
2017-05-07T20:23:19.371Z,63.60
2017-05-07T20:25:48.433Z,63.90
2017-05-07T20:28:17.491Z,64.50
2017-05-07T20:30:46.796Z,64.80
2017-05-07T20:33:15.836Z,64.00
2017-05-07T20:35:45.630Z,63.60
2017-05-07T20:38:14.727Z,63.20
2017-05-07T20:40:43.819Z,62.50
2017-05-07T20:43:12.851Z,62.40
2017-05-07T20:45:41.890Z,61.80
2017-05-07T20:48:10.959Z,61.90
2017-05-07T20:50:40.049Z,63.00
2017-05-07T20:53:09.217Z,62.80
2017-05-07T20:55:39.007Z,61.50
2017-05-07T20:58:08.037Z,61.10
2017-05-07T21:00:37.089Z,60.10
2017-05-07T21:03:06.129Z,60.60
2017-05-07T21:05:35.166Z,61.40
2017-05-07T21:08:04.223Z,62.90
2017-05-07T21:10:33.275Z,64.60
2017-05-07T21:13:03.110Z,65.40
2017-05-07T21:15:32.145Z,66.30
2017-05-07T21:18:01.213Z,67.00
2017-05-07T21:20:30.254Z,68.80
2017-05-07T21:22:59.309Z,70.00
2017-05-07T21:25:28.422Z,71.20
2017-05-07T21:27:57.570Z,72.60
2017-05-07T21:30:26.592Z,73.90
2017-05-07T21:32:55.671Z,74.40
2017-05-07T21:35:24.725Z,75.20
2017-05-07T21:37:53.811Z,75.80
2017-05-07T21:40:22.854Z,75.10
2017-05-07T21:42:51.885Z,73.50
2017-05-07T21:45:20.959Z,72.00
2017-05-07T21:47:49.997Z,72.90
2017-05-07T21:50:19.074Z,73.00
2017-05-07T21:52:48.125Z,73.50
2017-05-07T21:55:17.202Z,73.80
2017-05-07T21:57:47.075Z,73.80
2017-05-07T22:00:16.180Z,74.50
2017-05-07T22:02:45.302Z,75.70
2017-05-07T22:05:15.114Z,76.10
2017-05-07T22:07:44.912Z,76.50
2017-05-07T22:10:14.030Z,76.80
2017-05-07T22:12:43.818Z,76.80
2017-05-07T22:15:12.878Z,77.40
2017-05-07T22:17:41.933Z,76.60
2017-05-07T22:20:11.725Z,76.20
2017-05-07T22:22:41.524Z,75.40
2017-05-07T22:25:10.582Z,74.10
2017-05-07T22:27:39.743Z,73.30
2017-05-07T22:30:09.657Z,72.10
2017-05-07T22:32:39.417Z,73.50
2017-05-07T22:35:08.481Z,73.20
2017-05-07T22:37:37.529Z,73.30
2017-05-07T22:40:06.623Z,73.60
2017-05-07T22:42:35.654Z,75.00
2017-05-07T22:45:04.725Z,75.50
2017-05-07T22:47:34.521Z,76.00
2017-05-07T22:50:03.678Z,76.10
2017-05-07T22:52:32.748Z,78.10
2017-05-07T22:55:01.817Z,78.30
2017-05-07T22:57:31.735Z,78.80
2017-05-07T23:00:01.601Z,78.80
2017-05-07T23:02:30.656Z,79.30
2017-05-07T23:04:59.701Z,80.00
2017-05-07T23:07:28.773Z,79.50
2017-05-07T23:09:57.826Z,80.20
2017-05-07T23:12:27.676Z,79.50
2017-05-07T23:14:56.702Z,80.10
2017-05-07T23:17:25.775Z,79.60
2017-05-07T23:19:54.937Z,80.00
2017-05-07T23:22:24.007Z,79.70
2017-05-07T23:24:53.060Z,79.10
2017-05-07T23:27:22.126Z,78.60
2017-05-07T23:29:51.215Z,78.40
2017-05-07T23:32:20.285Z,77.80
2017-05-07T23:34:50.085Z,77.50
2017-05-07T23:37:19.117Z,77.20
2017-05-07T23:39:48.181Z,77.00
2017-05-07T23:42:17.301Z,77.50
2017-05-07T23:44:47.103Z,77.80
2017-05-07T23:47:16.885Z,78.00
2017-05-07T23:49:45.957Z,78.70
2017-05-07T23:52:15.010Z,78.40
2017-05-07T23:54:44.803Z,78.40
2017-05-07T23:57:13.851Z,78.50
2017-05-07T23:59:42.909Z,78.30
